sensor_id;sensor_type;location;lat;lon;timestamp;P1;durP1;ratioP1;P2;durP2;ratioP2
80199;SDS011;69520;44.900;-0.764;2023-09-19T00:00:55;9.87;;;1.70;;
80199;SDS011;69520;44.900;-0.764;2023-09-19T00:03:21;8.65;;;2.10;;
80199;SDS011;69520;44.900;-0.764;2023-09-19T00:05:48;9.52;;;2.17;;
80199;SDS011;69520;44.900;-0.764;2023-09-19T00:08:15;6.43;;;1.88;;
80199;SDS011;69520;44.900;-0.764;2023-09-19T00:10:41;12.43;;;2.38;;
80199;SDS011;69520;44.900;-0.764;2023-09-19T00:13:08;7.93;;;1.87;;
80199;SDS011;69520;44.900;-0.764;2023-09-19T00:15:38;10.00;;;2.40;;
80199;SDS011;69520;44.900;-0.764;2023-09-19T00:18:05;7.47;;;1.70;;
80199;SDS011;69520;44.900;-0.764;2023-09-19T00:20:32;11.48;;;2.40;;
80199;SDS011;69520;44.900;-0.764;2023-09-19T00:22:59;6.00;;;2.25;;
80199;SDS011;69520;44.900;-0.764;2023-09-19T00:25:33;8.10;;;2.20;;
80199;SDS011;69520;44.900;-0.764;2023-09-19T00:28:00;9.50;;;2.50;;
80199;SDS011;69520;44.900;-0.764;2023-09-19T00:30:26;9.77;;;2.55;;
80199;SDS011;69520;44.900;-0.764;2023-09-19T00:32:52;9.15;;;2.35;;
80199;SDS011;69520;44.900;-0.764;2023-09-19T00:35:19;9.30;;;2.40;;
80199;SDS011;69520;44.900;-0.764;2023-09-19T00:37:46;11.30;;;2.10;;
80199;SDS011;69520;44.900;-0.764;2023-09-19T00:40:12;8.32;;;2.35;;
80199;SDS011;69520;44.900;-0.764;2023-09-19T00:42:45;6.45;;;2.30;;
80199;SDS011;69520;44.900;-0.764;2023-09-19T00:45:11;8.27;;;2.50;;
80199;SDS011;69520;44.900;-0.764;2023-09-19T00:47:38;8.48;;;2.40;;
80199;SDS011;69520;44.900;-0.764;2023-09-19T00:50:06;10.43;;;2.67;;
80199;SDS011;69520;44.900;-0.764;2023-09-19T00:52:34;8.90;;;2.80;;
80199;SDS011;69520;44.900;-0.764;2023-09-19T00:55:04;8.02;;;2.53;;
80199;SDS011;69520;44.900;-0.764;2023-09-19T00:57:31;8.77;;;2.38;;
80199;SDS011;69520;44.900;-0.764;2023-09-19T00:59:57;9.88;;;2.45;;
80199;SDS011;69520;44.900;-0.764;2023-09-19T01:02:24;6.33;;;2.17;;
80199;SDS011;69520;44.900;-0.764;2023-09-19T01:04:54;8.90;;;2.40;;
80199;SDS011;69520;44.900;-0.764;2023-09-19T01:07:20;11.00;;;2.50;;
80199;SDS011;69520;44.900;-0.764;2023-09-19T01:09:47;7.95;;;2.47;;
80199;SDS011;69520;44.900;-0.764;2023-09-19T01:12:15;9.88;;;2.55;;
80199;SDS011;69520;44.900;-0.764;2023-09-19T01:14:54;8.33;;;2.20;;
80199;SDS011;69520;44.900;-0.764;2023-09-19T01:17:26;8.02;;;2.60;;
80199;SDS011;69520;44.900;-0.764;2023-09-19T01:20:15;8.50;;;2.55;;
80199;SDS011;69520;44.900;-0.764;2023-09-19T01:25:19;9.30;;;2.80;;
80199;SDS011;69520;44.900;-0.764;2023-09-19T01:30:51;8.05;;;2.38;;
80199;SDS011;69520;44.900;-0.764;2023-09-19T01:33:19;9.25;;;2.28;;
80199;SDS011;69520;44.900;-0.764;2023-09-19T01:35:45;7.63;;;2.25;;
80199;SDS011;69520;44.900;-0.764;2023-09-19T01:38:12;7.28;;;2.90;;
80199;SDS011;69520;44.900;-0.764;2023-09-19T01:40:43;7.23;;;2.23;;
80199;SDS011;69520;44.900;-0.764;2023-09-19T01:48:19;10.70;;;2.60;;
80199;SDS011;69520;44.900;-0.764;2023-09-19T01:50:52;8.27;;;2.42;;
80199;SDS011;69520;44.900;-0.764;2023-09-19T01:53:22;9.33;;;2.60;;
80199;SDS011;69520;44.900;-0.764;2023-09-19T01:55:49;9.85;;;2.75;;
80199;SDS011;69520;44.900;-0.764;2023-09-19T02:00:42;8.02;;;2.50;;
80199;SDS011;69520;44.900;-0.764;2023-09-19T02:03:10;7.82;;;2.40;;
80199;SDS011;69520;44.900;-0.764;2023-09-19T02:05:37;10.47;;;2.50;;
80199;SDS011;69520;44.900;-0.764;2023-09-19T02:08:04;8.27;;;2.40;;
80199;SDS011;69520;44.900;-0.764;2023-09-19T02:10:30;7.82;;;2.60;;
80199;SDS011;69520;44.900;-0.764;2023-09-19T02:12:56;8.82;;;2.67;;
80199;SDS011;69520;44.900;-0.764;2023-09-19T02:15:24;6.80;;;2.42;;
80199;SDS011;69520;44.900;-0.764;2023-09-19T02:17:50;8.70;;;2.40;;
80199;SDS011;69520;44.900;-0.764;2023-09-19T02:20:16;6.25;;;2.20;;
80199;SDS011;69520;44.900;-0.764;2023-09-19T02:22:44;9.48;;;2.58;;
80199;SDS011;69520;44.900;-0.764;2023-09-19T02:25:10;10.23;;;2.60;;
80199;SDS011;69520;44.900;-0.764;2023-09-19T02:27:38;9.40;;;2.65;;
80199;SDS011;69520;44.900;-0.764;2023-09-19T02:30:05;7.87;;;2.50;;
80199;SDS011;69520;44.900;-0.764;2023-09-19T02:32:31;7.55;;;2.60;;
80199;SDS011;69520;44.900;-0.764;2023-09-19T02:35:00;8.20;;;2.70;;
80199;SDS011;69520;44.900;-0.764;2023-09-19T02:37:27;8.68;;;2.63;;
80199;SDS011;69520;44.900;-0.764;2023-09-19T02:39:53;8.52;;;2.47;;
80199;SDS011;69520;44.900;-0.764;2023-09-19T02:42:19;8.07;;;2.47;;
80199;SDS011;69520;44.900;-0.764;2023-09-19T02:44:45;8.75;;;2.38;;
80199;SDS011;69520;44.900;-0.764;2023-09-19T02:47:13;8.65;;;2.78;;
80199;SDS011;69520;44.900;-0.764;2023-09-19T02:49:41;8.23;;;2.40;;
80199;SDS011;69520;44.900;-0.764;2023-09-19T02:52:07;7.13;;;2.58;;
80199;SDS011;69520;44.900;-0.764;2023-09-19T02:54:34;9.43;;;2.40;;
80199;SDS011;69520;44.900;-0.764;2023-09-19T02:57:00;6.95;;;2.30;;
80199;SDS011;69520;44.900;-0.764;2023-09-19T02:59:26;11.27;;;3.10;;
80199;SDS011;69520;44.900;-0.764;2023-09-19T03:01:53;8.30;;;2.25;;
80199;SDS011;69520;44.900;-0.764;2023-09-19T03:04:19;6.75;;;2.13;;
80199;SDS011;69520;44.900;-0.764;2023-09-19T03:06:46;7.27;;;2.30;;
80199;SDS011;69520;44.900;-0.764;2023-09-19T03:09:16;6.43;;;2.00;;
80199;SDS011;69520;44.900;-0.764;2023-09-19T03:11:42;5.68;;;1.67;;
80199;SDS011;69520;44.900;-0.764;2023-09-19T03:14:09;6.65;;;1.85;;
80199;SDS011;69520;44.900;-0.764;2023-09-19T03:16:36;6.53;;;1.73;;
80199;SDS011;69520;44.900;-0.764;2023-09-19T03:19:02;5.33;;;1.57;;
80199;SDS011;69520;44.900;-0.764;2023-09-19T03:21:28;5.97;;;1.60;;
80199;SDS011;69520;44.900;-0.764;2023-09-19T03:23:55;6.32;;;1.50;;
80199;SDS011;69520;44.900;-0.764;2023-09-19T03:26:21;6.70;;;1.95;;
80199;SDS011;69520;44.900;-0.764;2023-09-19T03:28:47;8.00;;;2.20;;
80199;SDS011;69520;44.900;-0.764;2023-09-19T03:31:13;8.97;;;2.20;;
80199;SDS011;69520;44.900;-0.764;2023-09-19T03:33:39;7.10;;;1.80;;
80199;SDS011;69520;44.900;-0.764;2023-09-19T03:36:05;6.55;;;2.25;;
80199;SDS011;69520;44.900;-0.764;2023-09-19T03:38:32;6.68;;;2.20;;
80199;SDS011;69520;44.900;-0.764;2023-09-19T03:40:59;9.50;;;2.40;;
80199;SDS011;69520;44.900;-0.764;2023-09-19T03:43:26;7.83;;;2.40;;
80199;SDS011;69520;44.900;-0.764;2023-09-19T03:45:52;6.03;;;2.10;;
80199;SDS011;69520;44.900;-0.764;2023-09-19T03:48:19;7.55;;;2.60;;
80199;SDS011;69520;44.900;-0.764;2023-09-19T03:50:47;7.65;;;2.53;;
80199;SDS011;69520;44.900;-0.764;2023-09-19T03:53:13;8.30;;;2.20;;
80199;SDS011;69520;44.900;-0.764;2023-09-19T03:55:39;9.33;;;2.37;;
80199;SDS011;69520;44.900;-0.764;2023-09-19T03:58:05;8.27;;;2.33;;
80199;SDS011;69520;44.900;-0.764;2023-09-19T04:00:31;7.68;;;2.05;;
80199;SDS011;69520;44.900;-0.764;2023-09-19T04:02:57;7.10;;;1.95;;
80199;SDS011;69520;44.900;-0.764;2023-09-19T04:05:23;7.78;;;2.30;;
80199;SDS011;69520;44.900;-0.764;2023-09-19T04:07:50;9.00;;;2.60;;
80199;SDS011;69520;44.900;-0.764;2023-09-19T04:10:16;6.63;;;2.50;;
80199;SDS011;69520;44.900;-0.764;2023-09-19T04:12:54;7.72;;;2.30;;
80199;SDS011;69520;44.900;-0.764;2023-09-19T04:15:21;9.77;;;2.60;;
80199;SDS011;69520;44.900;-0.764;2023-09-19T04:17:50;8.60;;;2.22;;
80199;SDS011;69520;44.900;-0.764;2023-09-19T04:20:17;7.33;;;2.00;;
80199;SDS011;69520;44.900;-0.764;2023-09-19T04:22:44;6.22;;;1.83;;
80199;SDS011;69520;44.900;-0.764;2023-09-19T04:25:10;6.90;;;2.10;;
80199;SDS011;69520;44.900;-0.764;2023-09-19T04:27:36;6.93;;;1.95;;
80199;SDS011;69520;44.900;-0.764;2023-09-19T04:30:03;5.95;;;2.03;;
80199;SDS011;69520;44.900;-0.764;2023-09-19T04:32:35;6.33;;;2.37;;
80199;SDS011;69520;44.900;-0.764;2023-09-19T04:35:01;6.70;;;2.22;;
80199;SDS011;69520;44.900;-0.764;2023-09-19T04:37:30;8.23;;;2.45;;
80199;SDS011;69520;44.900;-0.764;2023-09-19T04:39:56;8.65;;;2.70;;
80199;SDS011;69520;44.900;-0.764;2023-09-19T04:42:22;7.70;;;2.65;;
80199;SDS011;69520;44.900;-0.764;2023-09-19T04:44:50;8.37;;;2.80;;
80199;SDS011;69520;44.900;-0.764;2023-09-19T04:47:19;7.07;;;2.17;;
80199;SDS011;69520;44.900;-0.764;2023-09-19T04:49:47;11.85;;;2.58;;
80199;SDS011;69520;44.900;-0.764;2023-09-19T04:52:13;7.88;;;2.20;;
80199;SDS011;69520;44.900;-0.764;2023-09-19T04:54:40;6.68;;;2.10;;
80199;SDS011;69520;44.900;-0.764;2023-09-19T04:57:06;5.87;;;2.00;;
80199;SDS011;69520;44.900;-0.764;2023-09-19T04:59:32;4.93;;;1.80;;
80199;SDS011;69520;44.900;-0.764;2023-09-19T05:01:58;6.80;;;1.42;;
80199;SDS011;69520;44.900;-0.764;2023-09-19T05:04:25;5.88;;;1.67;;
80199;SDS011;69520;44.900;-0.764;2023-09-19T05:06:51;6.40;;;1.90;;
80199;SDS011;69520;44.900;-0.764;2023-09-19T05:09:17;6.70;;;1.70;;
80199;SDS011;69520;44.900;-0.764;2023-09-19T05:11:45;5.63;;;1.48;;
80199;SDS011;69520;44.900;-0.764;2023-09-19T05:14:11;4.85;;;1.52;;
80199;SDS011;69520;44.900;-0.764;2023-09-19T05:16:37;4.93;;;1.40;;
80199;SDS011;69520;44.900;-0.764;2023-09-19T05:19:03;6.82;;;1.38;;
80199;SDS011;69520;44.900;-0.764;2023-09-19T05:21:32;6.53;;;1.70;;
80199;SDS011;69520;44.900;-0.764;2023-09-19T05:23:58;5.93;;;1.67;;
80199;SDS011;69520;44.900;-0.764;2023-09-19T05:26:24;5.85;;;1.48;;
80199;SDS011;69520;44.900;-0.764;2023-09-19T05:28:50;5.97;;;1.70;;
80199;SDS011;69520;44.900;-0.764;2023-09-19T05:31:18;5.50;;;1.90;;
80199;SDS011;69520;44.900;-0.764;2023-09-19T05:33:44;6.23;;;1.47;;
80199;SDS011;69520;44.900;-0.764;2023-09-19T05:36:10;6.38;;;1.45;;
80199;SDS011;69520;44.900;-0.764;2023-09-19T05:38:37;4.80;;;1.33;;
80199;SDS011;69520;44.900;-0.764;2023-09-19T05:41:06;6.18;;;1.60;;
80199;SDS011;69520;44.900;-0.764;2023-09-19T05:43:33;6.40;;;1.50;;
80199;SDS011;69520;44.900;-0.764;2023-09-19T05:45:59;5.70;;;1.53;;
80199;SDS011;69520;44.900;-0.764;2023-09-19T05:48:26;6.18;;;1.33;;
80199;SDS011;69520;44.900;-0.764;2023-09-19T05:50:52;6.10;;;1.45;;
80199;SDS011;69520;44.900;-0.764;2023-09-19T05:53:18;7.32;;;1.48;;
80199;SDS011;69520;44.900;-0.764;2023-09-19T05:55:44;6.75;;;1.70;;
80199;SDS011;69520;44.900;-0.764;2023-09-19T05:58:10;5.10;;;1.40;;
80199;SDS011;69520;44.900;-0.764;2023-09-19T06:00:38;6.35;;;1.50;;
80199;SDS011;69520;44.900;-0.764;2023-09-19T06:03:06;7.00;;;1.50;;
80199;SDS011;69520;44.900;-0.764;2023-09-19T06:05:33;5.47;;;1.50;;
80199;SDS011;69520;44.900;-0.764;2023-09-19T06:07:59;6.40;;;1.83;;
80199;SDS011;69520;44.900;-0.764;2023-09-19T06:10:25;6.77;;;1.60;;
80199;SDS011;69520;44.900;-0.764;2023-09-19T06:12:53;9.02;;;1.70;;
80199;SDS011;69520;44.900;-0.764;2023-09-19T06:15:20;5.97;;;1.60;;
80199;SDS011;69520;44.900;-0.764;2023-09-19T06:17:51;5.50;;;1.40;;
80199;SDS011;69520;44.900;-0.764;2023-09-19T06:20:20;5.63;;;2.05;;
80199;SDS011;69520;44.900;-0.764;2023-09-19T06:22:47;5.97;;;2.17;;
80199;SDS011;69520;44.900;-0.764;2023-09-19T06:25:14;6.65;;;2.20;;
80199;SDS011;69520;44.900;-0.764;2023-09-19T06:27:50;7.40;;;2.33;;
80199;SDS011;69520;44.900;-0.764;2023-09-19T06:30:19;7.72;;;2.20;;
80199;SDS011;69520;44.900;-0.764;2023-09-19T06:32:45;9.85;;;2.40;;
80199;SDS011;69520;44.900;-0.764;2023-09-19T06:35:12;7.63;;;2.40;;
80199;SDS011;69520;44.900;-0.764;2023-09-19T06:37:39;8.93;;;2.40;;
80199;SDS011;69520;44.900;-0.764;2023-09-19T06:40:12;8.13;;;2.50;;
80199;SDS011;69520;44.900;-0.764;2023-09-19T06:42:42;9.63;;;2.75;;
80199;SDS011;69520;44.900;-0.764;2023-09-19T06:45:10;9.23;;;2.50;;
80199;SDS011;69520;44.900;-0.764;2023-09-19T06:47:38;13.03;;;2.77;;
80199;SDS011;69520;44.900;-0.764;2023-09-19T06:50:04;7.93;;;2.50;;
80199;SDS011;69520;44.900;-0.764;2023-09-19T06:52:31;10.98;;;2.45;;
80199;SDS011;69520;44.900;-0.764;2023-09-19T06:54:58;11.80;;;2.50;;
80199;SDS011;69520;44.900;-0.764;2023-09-19T06:57:24;6.75;;;2.88;;
80199;SDS011;69520;44.900;-0.764;2023-09-19T06:59:50;8.53;;;2.87;;
80199;SDS011;69520;44.900;-0.764;2023-09-19T07:02:16;9.10;;;2.80;;
80199;SDS011;69520;44.900;-0.764;2023-09-19T07:04:42;8.10;;;2.60;;
80199;SDS011;69520;44.900;-0.764;2023-09-19T07:07:08;8.27;;;2.60;;
80199;SDS011;69520;44.900;-0.764;2023-09-19T07:09:35;7.68;;;2.28;;
80199;SDS011;69520;44.900;-0.764;2023-09-19T07:12:02;8.87;;;2.30;;
80199;SDS011;69520;44.900;-0.764;2023-09-19T07:14:28;9.23;;;2.85;;
80199;SDS011;69520;44.900;-0.764;2023-09-19T07:16:55;9.35;;;2.55;;
80199;SDS011;69520;44.900;-0.764;2023-09-19T07:19:21;10.00;;;2.67;;
80199;SDS011;69520;44.900;-0.764;2023-09-19T07:21:47;11.02;;;2.70;;
80199;SDS011;69520;44.900;-0.764;2023-09-19T07:24:15;10.83;;;2.50;;
80199;SDS011;69520;44.900;-0.764;2023-09-19T07:26:41;8.88;;;2.35;;
80199;SDS011;69520;44.900;-0.764;2023-09-19T07:29:07;9.93;;;2.35;;
80199;SDS011;69520;44.900;-0.764;2023-09-19T07:31:33;7.82;;;1.95;;
80199;SDS011;69520;44.900;-0.764;2023-09-19T07:33:59;10.02;;;2.20;;
80199;SDS011;69520;44.900;-0.764;2023-09-19T07:36:25;7.03;;;1.90;;
80199;SDS011;69520;44.900;-0.764;2023-09-19T07:38:54;7.05;;;1.70;;
80199;SDS011;69520;44.900;-0.764;2023-09-19T07:41:23;9.65;;;2.42;;
80199;SDS011;69520;44.900;-0.764;2023-09-19T07:43:49;8.40;;;1.83;;
80199;SDS011;69520;44.900;-0.764;2023-09-19T07:46:15;9.68;;;1.95;;
80199;SDS011;69520;44.900;-0.764;2023-09-19T07:48:41;7.53;;;1.80;;
80199;SDS011;69520;44.900;-0.764;2023-09-19T07:51:12;7.88;;;1.88;;
80199;SDS011;69520;44.900;-0.764;2023-09-19T07:53:39;7.40;;;1.70;;
80199;SDS011;69520;44.900;-0.764;2023-09-19T07:56:05;8.70;;;1.65;;
80199;SDS011;69520;44.900;-0.764;2023-09-19T07:58:31;11.82;;;2.20;;
80199;SDS011;69520;44.900;-0.764;2023-09-19T08:01:04;6.97;;;1.50;;
80199;SDS011;69520;44.900;-0.764;2023-09-19T08:03:31;10.85;;;1.75;;
80199;SDS011;69520;44.900;-0.764;2023-09-19T08:05:57;7.55;;;1.70;;
80199;SDS011;69520;44.900;-0.764;2023-09-19T08:08:23;6.50;;;1.60;;
80199;SDS011;69520;44.900;-0.764;2023-09-19T08:10:56;7.20;;;1.70;;
80199;SDS011;69520;44.900;-0.764;2023-09-19T08:13:22;6.53;;;1.50;;
80199;SDS011;69520;44.900;-0.764;2023-09-19T08:15:49;7.03;;;1.70;;
80199;SDS011;69520;44.900;-0.764;2023-09-19T08:18:16;7.70;;;1.50;;
80199;SDS011;69520;44.900;-0.764;2023-09-19T08:20:42;5.82;;;1.70;;
80199;SDS011;69520;44.900;-0.764;2023-09-19T08:23:11;8.85;;;2.00;;
80199;SDS011;69520;44.900;-0.764;2023-09-19T08:25:37;8.63;;;2.10;;
80199;SDS011;69520;44.900;-0.764;2023-09-19T08:28:04;8.20;;;1.60;;
80199;SDS011;69520;44.900;-0.764;2023-09-19T08:30:33;6.80;;;1.77;;
80199;SDS011;69520;44.900;-0.764;2023-09-19T08:33:00;5.75;;;1.38;;
80199;SDS011;69520;44.900;-0.764;2023-09-19T08:35:29;5.57;;;1.58;;
80199;SDS011;69520;44.900;-0.764;2023-09-19T08:37:55;6.77;;;1.70;;
80199;SDS011;69520;44.900;-0.764;2023-09-19T08:40:21;7.00;;;1.98;;
80199;SDS011;69520;44.900;-0.764;2023-09-19T08:42:48;7.20;;;1.80;;
80199;SDS011;69520;44.900;-0.764;2023-09-19T08:45:18;8.32;;;1.95;;
80199;SDS011;69520;44.900;-0.764;2023-09-19T08:47:56;7.40;;;1.80;;
80199;SDS011;69520;44.900;-0.764;2023-09-19T08:50:28;8.43;;;1.60;;
80199;SDS011;69520;44.900;-0.764;2023-09-19T08:52:56;6.30;;;1.60;;
80199;SDS011;69520;44.900;-0.764;2023-09-19T08:55:28;8.05;;;1.90;;
80199;SDS011;69520;44.900;-0.764;2023-09-19T08:58:02;8.02;;;1.55;;
80199;SDS011;69520;44.900;-0.764;2023-09-19T09:00:29;6.22;;;1.48;;
80199;SDS011;69520;44.900;-0.764;2023-09-19T09:02:56;8.67;;;1.50;;
80199;SDS011;69520;44.900;-0.764;2023-09-19T09:05:23;10.10;;;2.10;;
80199;SDS011;69520;44.900;-0.764;2023-09-19T09:07:49;6.35;;;1.58;;
80199;SDS011;69520;44.900;-0.764;2023-09-19T09:10:17;8.75;;;2.20;;
80199;SDS011;69520;44.900;-0.764;2023-09-19T09:12:43;8.63;;;1.40;;
80199;SDS011;69520;44.900;-0.764;2023-09-19T09:15:09;7.03;;;1.23;;
80199;SDS011;69520;44.900;-0.764;2023-09-19T09:17:37;7.50;;;1.40;;
80199;SDS011;69520;44.900;-0.764;2023-09-19T09:20:03;8.00;;;1.33;;
80199;SDS011;69520;44.900;-0.764;2023-09-19T09:22:34;6.93;;;1.50;;
80199;SDS011;69520;44.900;-0.764;2023-09-19T09:25:05;10.43;;;1.80;;
80199;SDS011;69520;44.900;-0.764;2023-09-19T09:27:31;7.67;;;1.33;;
80199;SDS011;69520;44.900;-0.764;2023-09-19T09:29:59;7.53;;;1.38;;
80199;SDS011;69520;44.900;-0.764;2023-09-19T09:32:26;6.30;;;1.40;;
80199;SDS011;69520;44.900;-0.764;2023-09-19T09:34:57;8.75;;;2.00;;
80199;SDS011;69520;44.900;-0.764;2023-09-19T09:37:24;8.25;;;1.40;;
80199;SDS011;69520;44.900;-0.764;2023-09-19T09:42:30;7.55;;;1.40;;
80199;SDS011;69520;44.900;-0.764;2023-09-19T09:47:53;8.38;;;1.65;;
80199;SDS011;69520;44.900;-0.764;2023-09-19T09:50:25;7.18;;;1.30;;
80199;SDS011;69520;44.900;-0.764;2023-09-19T09:53:04;6.27;;;1.20;;
80199;SDS011;69520;44.900;-0.764;2023-09-19T09:55:56;7.28;;;1.60;;
80199;SDS011;69520;44.900;-0.764;2023-09-19T09:58:23;7.88;;;1.80;;
80199;SDS011;69520;44.900;-0.764;2023-09-19T10:00:54;7.18;;;1.50;;
80199;SDS011;69520;44.900;-0.764;2023-09-19T10:04:23;8.38;;;1.55;;
80199;SDS011;69520;44.900;-0.764;2023-09-19T10:06:19;7.97;;;1.30;;
80199;SDS011;69520;44.900;-0.764;2023-09-19T10:11:46;6.03;;;1.70;;
80199;SDS011;69520;44.900;-0.764;2023-09-19T10:14:16;6.43;;;1.42;;
80199;SDS011;69520;44.900;-0.764;2023-09-19T10:16:45;7.20;;;1.60;;
80199;SDS011;69520;44.900;-0.764;2023-09-19T10:19:14;6.80;;;1.57;;
80199;SDS011;69520;44.900;-0.764;2023-09-19T10:21:41;6.38;;;1.63;;
80199;SDS011;69520;44.900;-0.764;2023-09-19T10:24:08;6.57;;;1.23;;
80199;SDS011;69520;44.900;-0.764;2023-09-19T10:26:35;6.22;;;1.40;;
80199;SDS011;69520;44.900;-0.764;2023-09-19T10:29:01;7.78;;;1.40;;
80199;SDS011;69520;44.900;-0.764;2023-09-19T10:31:32;6.70;;;1.47;;
80199;SDS011;69520;44.900;-0.764;2023-09-19T10:34:00;6.95;;;1.30;;
80199;SDS011;69520;44.900;-0.764;2023-09-19T10:36:29;6.75;;;1.30;;
80199;SDS011;69520;44.900;-0.764;2023-09-19T10:39:00;8.30;;;1.20;;
80199;SDS011;69520;44.900;-0.764;2023-09-19T10:41:29;8.15;;;1.52;;
80199;SDS011;69520;44.900;-0.764;2023-09-19T10:43:59;8.07;;;1.57;;
80199;SDS011;69520;44.900;-0.764;2023-09-19T10:46:28;6.68;;;1.50;;
80199;SDS011;69520;44.900;-0.764;2023-09-19T10:48:57;5.72;;;1.38;;
80199;SDS011;69520;44.900;-0.764;2023-09-19T10:51:24;7.53;;;1.33;;
80199;SDS011;69520;44.900;-0.764;2023-09-19T10:56:32;7.53;;;1.73;;
80199;SDS011;69520;44.900;-0.764;2023-09-19T10:59:08;7.30;;;1.67;;
80199;SDS011;69520;44.900;-0.764;2023-09-19T11:01:47;8.93;;;1.90;;
80199;SDS011;69520;44.900;-0.764;2023-09-19T11:04:32;6.20;;;1.30;;
80199;SDS011;69520;44.900;-0.764;2023-09-19T11:07:11;6.05;;;1.23;;
80199;SDS011;69520;44.900;-0.764;2023-09-19T11:12:08;7.13;;;1.35;;
80199;SDS011;69520;44.900;-0.764;2023-09-19T11:14:38;6.13;;;1.27;;
80199;SDS011;69520;44.900;-0.764;2023-09-19T11:22:21;5.73;;;1.30;;
80199;SDS011;69520;44.900;-0.764;2023-09-19T11:24:47;8.60;;;1.40;;
80199;SDS011;69520;44.900;-0.764;2023-09-19T11:27:16;5.75;;;1.25;;
80199;SDS011;69520;44.900;-0.764;2023-09-19T11:29:43;6.85;;;1.65;;
80199;SDS011;69520;44.900;-0.764;2023-09-19T11:32:10;8.77;;;1.40;;
80199;SDS011;69520;44.900;-0.764;2023-09-19T11:40:04;6.57;;;1.55;;
80199;SDS011;69520;44.900;-0.764;2023-09-19T11:42:45;5.43;;;1.08;;
80199;SDS011;69520;44.900;-0.764;2023-09-19T11:47:59;6.83;;;1.30;;
80199;SDS011;69520;44.900;-0.764;2023-09-19T11:50:27;6.65;;;1.20;;
80199;SDS011;69520;44.900;-0.764;2023-09-19T11:52:53;8.88;;;1.25;;
80199;SDS011;69520;44.900;-0.764;2023-09-19T11:55:20;5.10;;;1.52;;
80199;SDS011;69520;44.900;-0.764;2023-09-19T11:57:49;4.80;;;0.90;;
80199;SDS011;69520;44.900;-0.764;2023-09-19T12:00:18;6.27;;;1.00;;
80199;SDS011;69520;44.900;-0.764;2023-09-19T12:02:46;6.47;;;0.90;;
80199;SDS011;69520;44.900;-0.764;2023-09-19T12:05:13;6.40;;;1.30;;
80199;SDS011;69520;44.900;-0.764;2023-09-19T12:07:43;7.35;;;1.13;;
80199;SDS011;69520;44.900;-0.764;2023-09-19T12:10:13;5.25;;;1.00;;
80199;SDS011;69520;44.900;-0.764;2023-09-19T12:12:46;6.87;;;1.20;;
80199;SDS011;69520;44.900;-0.764;2023-09-19T12:15:27;5.55;;;1.33;;
80199;SDS011;69520;44.900;-0.764;2023-09-19T12:17:53;8.23;;;1.40;;
80199;SDS011;69520;44.900;-0.764;2023-09-19T12:20:20;5.95;;;1.52;;
80199;SDS011;69520;44.900;-0.764;2023-09-19T12:22:46;8.50;;;1.30;;
80199;SDS011;69520;44.900;-0.764;2023-09-19T12:25:14;6.20;;;1.67;;
80199;SDS011;69520;44.900;-0.764;2023-09-19T12:27:45;5.10;;;1.60;;
80199;SDS011;69520;44.900;-0.764;2023-09-19T12:30:21;6.85;;;1.70;;
80199;SDS011;69520;44.900;-0.764;2023-09-19T12:32:53;6.47;;;1.65;;
80199;SDS011;69520;44.900;-0.764;2023-09-19T12:35:31;6.80;;;1.80;;
80199;SDS011;69520;44.900;-0.764;2023-09-19T12:38:00;5.23;;;1.43;;
80199;SDS011;69520;44.900;-0.764;2023-09-19T12:40:28;6.28;;;1.80;;
80199;SDS011;69520;44.900;-0.764;2023-09-19T12:42:54;6.15;;;1.65;;
80199;SDS011;69520;44.900;-0.764;2023-09-19T12:45:20;5.47;;;1.38;;
80199;SDS011;69520;44.900;-0.764;2023-09-19T12:50:33;5.60;;;1.70;;
80199;SDS011;69520;44.900;-0.764;2023-09-19T12:52:59;5.88;;;1.55;;
80199;SDS011;69520;44.900;-0.764;2023-09-19T12:55:26;5.90;;;1.30;;
80199;SDS011;69520;44.900;-0.764;2023-09-19T12:58:25;5.53;;;1.40;;
80199;SDS011;69520;44.900;-0.764;2023-09-19T13:00:45;6.35;;;1.70;;
80199;SDS011;69520;44.900;-0.764;2023-09-19T13:03:12;6.73;;;1.53;;
80199;SDS011;69520;44.900;-0.764;2023-09-19T13:08:22;5.85;;;1.30;;
80199;SDS011;69520;44.900;-0.764;2023-09-19T13:13:34;6.35;;;1.25;;
80199;SDS011;69520;44.900;-0.764;2023-09-19T13:16:04;6.30;;;1.57;;
80199;SDS011;69520;44.900;-0.764;2023-09-19T13:18:43;6.22;;;1.65;;
80199;SDS011;69520;44.900;-0.764;2023-09-19T13:21:15;6.03;;;1.48;;
80199;SDS011;69520;44.900;-0.764;2023-09-19T13:23:54;6.13;;;1.20;;
80199;SDS011;69520;44.900;-0.764;2023-09-19T13:26:27;4.72;;;1.33;;
80199;SDS011;69520;44.900;-0.764;2023-09-19T13:28:53;5.27;;;1.13;;
80199;SDS011;69520;44.900;-0.764;2023-09-19T13:31:19;5.50;;;1.48;;
80199;SDS011;69520;44.900;-0.764;2023-09-19T13:33:47;6.57;;;1.60;;
80199;SDS011;69520;44.900;-0.764;2023-09-19T13:36:15;4.90;;;1.10;;
80199;SDS011;69520;44.900;-0.764;2023-09-19T13:38:42;5.28;;;0.98;;
80199;SDS011;69520;44.900;-0.764;2023-09-19T13:41:09;5.03;;;1.20;;
80199;SDS011;69520;44.900;-0.764;2023-09-19T13:43:35;5.18;;;0.93;;
80199;SDS011;69520;44.900;-0.764;2023-09-19T13:46:02;7.45;;;1.60;;
80199;SDS011;69520;44.900;-0.764;2023-09-19T13:48:28;6.57;;;1.00;;
80199;SDS011;69520;44.900;-0.764;2023-09-19T13:50:55;7.15;;;1.40;;
80199;SDS011;69520;44.900;-0.764;2023-09-19T13:53:21;5.47;;;1.30;;
80199;SDS011;69520;44.900;-0.764;2023-09-19T13:55:47;5.97;;;1.15;;
80199;SDS011;69520;44.900;-0.764;2023-09-19T13:58:16;7.93;;;1.63;;
80199;SDS011;69520;44.900;-0.764;2023-09-19T14:00:42;6.82;;;1.25;;
80199;SDS011;69520;44.900;-0.764;2023-09-19T14:03:08;6.75;;;1.30;;
80199;SDS011;69520;44.900;-0.764;2023-09-19T14:05:35;5.30;;;1.00;;
80199;SDS011;69520;44.900;-0.764;2023-09-19T14:08:02;4.00;;;1.00;;
80199;SDS011;69520;44.900;-0.764;2023-09-19T14:10:28;6.05;;;1.30;;
80199;SDS011;69520;44.900;-0.764;2023-09-19T14:12:56;4.97;;;1.10;;
80199;SDS011;69520;44.900;-0.764;2023-09-19T14:15:24;4.05;;;1.17;;
80199;SDS011;69520;44.900;-0.764;2023-09-19T14:17:55;7.47;;;1.40;;
80199;SDS011;69520;44.900;-0.764;2023-09-19T14:20:21;5.50;;;1.33;;
80199;SDS011;69520;44.900;-0.764;2023-09-19T14:22:48;3.88;;;1.25;;
80199;SDS011;69520;44.900;-0.764;2023-09-19T14:25:14;4.97;;;1.15;;
80199;SDS011;69520;44.900;-0.764;2023-09-19T14:27:40;4.72;;;1.30;;
80199;SDS011;69520;44.900;-0.764;2023-09-19T14:30:06;5.23;;;1.07;;
80199;SDS011;69520;44.900;-0.764;2023-09-19T14:32:34;5.05;;;1.17;;
80199;SDS011;69520;44.900;-0.764;2023-09-19T14:35:01;6.47;;;1.20;;
80199;SDS011;69520;44.900;-0.764;2023-09-19T14:37:27;5.53;;;1.20;;
80199;SDS011;69520;44.900;-0.764;2023-09-19T14:39:53;6.43;;;1.30;;
80199;SDS011;69520;44.900;-0.764;2023-09-19T14:42:19;5.53;;;1.13;;
80199;SDS011;69520;44.900;-0.764;2023-09-19T14:44:45;5.78;;;1.10;;
80199;SDS011;69520;44.900;-0.764;2023-09-19T14:47:13;5.45;;;1.30;;
80199;SDS011;69520;44.900;-0.764;2023-09-19T14:49:41;6.05;;;1.10;;
80199;SDS011;69520;44.900;-0.764;2023-09-19T14:52:07;5.70;;;1.13;;
80199;SDS011;69520;44.900;-0.764;2023-09-19T14:54:34;7.83;;;1.30;;
80199;SDS011;69520;44.900;-0.764;2023-09-19T14:57:00;4.43;;;0.98;;
80199;SDS011;69520;44.900;-0.764;2023-09-19T14:59:32;6.10;;;0.93;;
80199;SDS011;69520;44.900;-0.764;2023-09-19T15:02:02;6.03;;;0.90;;
80199;SDS011;69520;44.900;-0.764;2023-09-19T15:04:28;5.47;;;1.00;;
80199;SDS011;69520;44.900;-0.764;2023-09-19T15:06:54;6.30;;;1.17;;
80199;SDS011;69520;44.900;-0.764;2023-09-19T15:09:21;4.70;;;1.08;;
80199;SDS011;69520;44.900;-0.764;2023-09-19T15:11:50;5.70;;;1.25;;
80199;SDS011;69520;44.900;-0.764;2023-09-19T15:14:17;6.22;;;0.90;;
80199;SDS011;69520;44.900;-0.764;2023-09-19T15:16:43;7.63;;;1.25;;
80199;SDS011;69520;44.900;-0.764;2023-09-19T15:19:09;5.87;;;1.10;;
80199;SDS011;69520;44.900;-0.764;2023-09-19T15:21:36;4.35;;;0.90;;
80199;SDS011;69520;44.900;-0.764;2023-09-19T15:24:02;4.82;;;1.10;;
80199;SDS011;69520;44.900;-0.764;2023-09-19T15:26:28;6.15;;;1.30;;